createdAt,value
2024-03-02T00:01:00.873Z,73.20
2024-03-02T00:06:00.707Z,73.00
2024-03-02T00:11:00.976Z,77.50
2024-03-02T00:16:00.672Z,70.10
2024-03-02T00:21:00.499Z,74.80
2024-03-02T00:26:00.423Z,72.90
2024-03-02T00:31:00.496Z,74.70
2024-03-02T00:36:00.342Z,76.20
2024-03-02T00:41:00.236Z,79.10
2024-03-02T00:46:00.175Z,67.60
2024-03-02T00:51:00.139Z,76.00
2024-03-02T00:56:00.078Z,78.30
2024-03-02T01:01:00.024Z,78.00
2024-03-02T01:05:59.879Z,79.30
2024-03-02T01:10:59.888Z,79.80
2024-03-02T01:15:59.799Z,79.00
2024-03-02T01:20:59.677Z,77.80
2024-03-02T01:25:59.608Z,78.30
2024-03-02T01:30:59.667Z,73.00
2024-03-02T01:35:59.472Z,76.10
2024-03-02T01:40:59.405Z,75.30
2024-03-02T01:45:59.396Z,75.70
2024-03-02T01:50:59.276Z,76.80
2024-03-02T01:55:59.211Z,79.70
2024-03-02T02:00:59.243Z,75.10
2024-03-02T02:05:59.167Z,78.10
2024-03-02T02:10:59.103Z,74.70
2024-03-02T02:15:59.044Z,79.30
2024-03-02T02:20:58.931Z,76.90
2024-03-02T02:25:58.842Z,80.80
2024-03-02T02:30:58.869Z,84.60
2024-03-02T02:35:58.750Z,75.30
2024-03-02T02:40:58.606Z,72.30
2024-03-02T02:45:58.583Z,80.40
2024-03-02T02:50:58.471Z,80.60
2024-03-02T02:55:58.427Z,83.00
2024-03-02T03:00:58.429Z,88.80
2024-03-02T03:05:58.292Z,76.90
2024-03-02T03:10:58.343Z,69.50
2024-03-02T03:15:58.221Z,82.30
2024-03-02T03:20:58.104Z,78.90
2024-03-02T03:25:58.086Z,79.00
2024-03-02T03:30:57.950Z,78.70
2024-03-02T03:35:57.927Z,78.70
2024-03-02T03:40:57.791Z,76.20
2024-03-02T03:45:57.851Z,85.30
2024-03-02T03:50:57.651Z,92.70
2024-03-02T03:55:57.614Z,91.00
2024-03-02T04:00:57.592Z,88.90
2024-03-02T04:05:57.476Z,92.10
2024-03-02T04:10:57.434Z,100.40
2024-03-02T04:15:57.383Z,94.00
2024-03-02T04:20:57.334Z,90.70
2024-03-02T04:25:57.194Z,98.60
2024-03-02T04:30:57.217Z,97.90
2024-03-02T04:35:57.092Z,97.70
2024-03-02T04:40:57.096Z,99.40
2024-03-02T04:45:57.030Z,100.20
2024-03-02T04:50:56.847Z,102.10
2024-03-02T04:55:56.829Z,99.50
2024-03-02T05:00:56.794Z,95.00
2024-03-02T05:05:56.643Z,90.20
2024-03-02T05:10:56.573Z,92.30
2024-03-02T05:15:56.519Z,94.50
2024-03-02T05:20:56.512Z,92.70
2024-03-02T05:25:56.345Z,91.60
2024-03-02T05:30:56.405Z,95.50
2024-03-02T05:35:56.236Z,94.10
2024-03-02T05:40:56.241Z,92.30
2024-03-02T05:45:56.255Z,94.20
2024-03-02T05:50:56.004Z,89.70
2024-03-02T05:55:55.961Z,83.60
2024-03-02T06:00:56.110Z,85.60
2024-03-02T06:05:55.822Z,82.10
2024-03-02T06:10:55.853Z,84.30
2024-03-02T06:15:55.766Z,81.30
2024-03-02T06:20:55.750Z,81.50
2024-03-02T06:25:55.590Z,74.40
2024-03-02T06:30:55.550Z,72.30
2024-03-02T06:35:55.508Z,75.30
2024-03-02T06:40:55.333Z,70.00
2024-03-02T06:45:55.366Z,77.40
2024-03-02T06:50:55.253Z,71.40
2024-03-02T06:55:55.200Z,70.20
2024-03-02T07:00:55.109Z,69.60
2024-03-02T07:05:55.022Z,71.40
2024-03-02T07:10:55.001Z,68.40
2024-03-02T07:15:55.041Z,70.90
2024-03-02T07:20:54.826Z,64.30
2024-03-02T07:30:54.699Z,63.40
2024-03-02T07:35:54.679Z,67.30
2024-03-02T07:40:54.559Z,63.10
2024-03-02T07:45:54.589Z,63.50
2024-03-02T07:50:54.444Z,69.60
2024-03-02T07:55:54.416Z,72.90
2024-03-02T08:00:55.593Z,75.80
2024-03-02T08:05:54.442Z,71.70
2024-03-02T08:10:54.231Z,73.30
2024-03-02T08:15:54.176Z,74.40
2024-03-02T08:20:54.048Z,74.60
2024-03-02T08:25:54.009Z,78.10
2024-03-02T08:30:54.146Z,77.00
2024-03-02T08:35:53.845Z,70.90
2024-03-02T08:40:53.770Z,64.00
2024-03-02T08:45:53.846Z,64.40
2024-03-02T08:50:53.774Z,57.60
2024-03-02T08:55:53.545Z,54.10
2024-03-02T09:00:53.549Z,50.10
2024-03-02T09:05:53.448Z,49.10
2024-03-02T09:10:53.381Z,43.10
2024-03-02T09:15:53.730Z,43.70
2024-03-02T09:20:53.222Z,44.40
2024-03-02T09:25:53.193Z,39.60
2024-03-02T09:30:53.162Z,43.40
2024-03-02T09:35:55.096Z,44.60
2024-03-02T09:40:52.963Z,42.10
2024-03-02T09:45:52.986Z,41.60
2024-03-02T09:50:52.864Z,42.70
2024-03-02T09:55:52.882Z,48.20
2024-03-02T10:00:52.796Z,45.70
2024-03-02T10:05:52.733Z,42.70
2024-03-02T10:10:52.630Z,43.60
2024-03-02T10:15:55.009Z,44.10
2024-03-02T10:20:52.475Z,47.70
2024-03-02T10:25:57.985Z,47.40
2024-03-02T10:30:53.386Z,43.80
2024-03-02T10:35:52.275Z,47.20
2024-03-02T10:40:52.222Z,46.50
2024-03-02T10:45:52.160Z,42.20
2024-03-02T10:50:52.081Z,40.30
2024-03-02T10:55:52.046Z,44.00
2024-03-02T11:00:52.085Z,33.90
2024-03-02T11:05:51.894Z,35.90
2024-03-02T11:10:51.872Z,40.40
2024-03-02T11:15:51.820Z,27.40
2024-03-02T11:20:51.728Z,19.30
2024-03-02T11:25:51.609Z,17.80
2024-03-02T11:30:51.643Z,20.30
2024-03-02T11:35:51.910Z,16.70
2024-03-02T11:40:51.415Z,15.20
2024-03-02T11:45:51.371Z,13.50
2024-03-02T11:50:51.298Z,13.40
2024-03-02T11:55:51.183Z,14.00
2024-03-02T12:00:51.246Z,14.50
2024-03-02T12:05:51.085Z,11.90
2024-03-02T12:10:51.081Z,14.20
2024-03-02T12:15:51.110Z,16.90
2024-03-02T12:20:50.916Z,19.50
2024-03-02T12:25:50.917Z,23.50
2024-03-02T12:30:50.808Z,24.60
2024-03-02T12:35:50.764Z,27.50
2024-03-02T12:40:50.740Z,29.80
2024-03-02T12:45:50.574Z,26.70
2024-03-02T12:50:50.581Z,28.00
2024-03-02T12:55:50.509Z,24.60
2024-03-02T13:00:50.449Z,24.30
2024-03-02T13:05:50.276Z,23.90
2024-03-02T13:10:50.253Z,22.30
2024-03-02T13:15:50.265Z,24.30
2024-03-02T13:20:50.066Z,25.30
2024-03-02T13:25:50.030Z,23.30
2024-03-02T13:30:50.011Z,26.70
2024-03-02T13:35:49.907Z,26.80
2024-03-02T13:40:49.856Z,25.20
2024-03-02T13:45:49.804Z,26.20
2024-03-02T13:50:49.781Z,25.00
2024-03-02T13:55:49.654Z,23.80
2024-03-02T14:00:49.631Z,22.50
2024-03-02T14:05:49.492Z,22.70
2024-03-02T14:10:49.551Z,24.50
2024-03-02T14:15:49.423Z,22.30
2024-03-02T14:20:49.267Z,22.10
2024-03-02T14:25:49.227Z,24.40
2024-03-02T14:30:49.262Z,26.20
2024-03-02T14:35:49.103Z,28.40
2024-03-02T14:40:49.728Z,30.30
2024-03-02T14:45:49.010Z,30.70
2024-03-02T14:50:48.939Z,26.20
2024-03-02T14:55:48.849Z,29.20
2024-03-02T15:00:48.886Z,31.50
2024-03-02T15:05:48.761Z,30.10
2024-03-02T15:10:48.667Z,29.50
2024-03-02T15:15:48.617Z,25.30
2024-03-02T15:20:48.534Z,27.90
2024-03-02T15:25:51.573Z,29.90
2024-03-02T15:30:48.914Z,25.70
2024-03-02T15:35:50.004Z,26.20
2024-03-02T15:40:49.589Z,25.00
2024-03-02T15:45:53.022Z,28.90
2024-03-02T15:50:51.212Z,28.10
2024-03-02T15:55:48.123Z,30.40
2024-03-02T16:00:48.050Z,29.10
2024-03-02T16:05:47.893Z,26.90
2024-03-02T16:10:47.824Z,30.70
2024-03-02T16:15:47.836Z,26.10
2024-03-02T16:20:47.707Z,29.40
2024-03-02T16:25:47.622Z,30.10
2024-03-02T16:30:47.602Z,30.00
2024-03-02T16:35:47.505Z,26.40
2024-03-02T16:40:47.470Z,25.70
2024-03-02T16:45:47.380Z,28.10
2024-03-02T16:50:47.396Z,28.60
2024-03-02T16:55:47.226Z,26.90
2024-03-02T17:00:47.202Z,27.20
2024-03-02T17:05:47.115Z,28.30
2024-03-02T17:10:47.080Z,26.90
2024-03-02T17:15:47.018Z,29.10
2024-03-02T17:20:46.912Z,42.90
2024-03-02T17:25:46.833Z,31.70
2024-03-02T17:30:46.924Z,27.90
2024-03-02T17:35:46.716Z,32.00
2024-03-02T17:40:46.674Z,29.10
2024-03-02T17:45:46.641Z,29.10
2024-03-02T17:50:46.542Z,30.40
2024-03-02T17:55:46.457Z,30.80
2024-03-02T18:00:46.412Z,34.00
2024-03-02T18:05:46.356Z,32.20
2024-03-02T18:10:46.295Z,31.80
2024-03-02T18:15:47.251Z,33.10
2024-03-02T18:20:46.118Z,35.10
2024-03-02T18:25:46.098Z,35.70
2024-03-02T18:30:46.070Z,33.50
2024-03-02T18:35:45.914Z,34.40
2024-03-02T18:40:45.838Z,38.00
2024-03-02T18:45:45.893Z,34.70
2024-03-02T18:50:45.844Z,37.00
2024-03-02T18:55:45.701Z,35.20
2024-03-02T19:00:45.652Z,35.00
2024-03-02T19:05:45.547Z,37.60
2024-03-02T19:10:45.564Z,36.20
2024-03-02T19:15:45.451Z,39.30
2024-03-02T19:20:45.339Z,39.20
2024-03-02T19:25:45.315Z,40.90
2024-03-02T19:30:46.737Z,39.90
2024-03-02T19:35:45.140Z,41.10
2024-03-02T19:40:45.086Z,39.00
2024-03-02T19:45:45.098Z,44.10
2024-03-02T19:50:44.947Z,40.60
2024-03-02T19:55:44.882Z,44.40
2024-03-02T20:00:44.885Z,44.60
2024-03-02T20:05:44.808Z,46.20
2024-03-02T20:10:46.949Z,44.80
2024-03-02T20:15:44.650Z,44.20
2024-03-02T20:20:44.624Z,43.80
2024-03-02T20:25:44.556Z,43.30
2024-03-02T20:30:44.486Z,46.20
2024-03-02T20:35:44.364Z,48.10
2024-03-02T20:40:44.322Z,46.00
2024-03-02T20:45:44.274Z,46.90
2024-03-02T20:50:46.087Z,53.70
2024-03-02T20:55:44.116Z,51.00
2024-03-02T21:00:44.102Z,49.00
2024-03-02T21:05:44.044Z,51.40
2024-03-02T21:10:46.210Z,52.20
2024-03-02T21:15:43.896Z,54.50
2024-03-02T21:20:43.844Z,53.50
2024-03-02T21:25:43.712Z,54.90
2024-03-02T21:30:43.690Z,54.60
2024-03-02T21:35:43.619Z,58.30
2024-03-02T21:40:43.630Z,57.30
2024-03-02T21:45:43.527Z,60.20
2024-03-02T21:50:43.426Z,59.80
2024-03-02T21:55:43.353Z,57.20
2024-03-02T22:00:43.341Z,57.30
2024-03-02T22:05:43.222Z,57.60
2024-03-02T22:10:43.196Z,53.10
2024-03-02T22:15:43.155Z,53.30
2024-03-02T22:20:43.063Z,56.50
2024-03-02T22:25:42.963Z,56.00
2024-03-02T22:30:42.905Z,54.10
2024-03-02T22:35:42.877Z,55.40
2024-03-02T22:40:42.811Z,54.00
2024-03-02T22:45:42.715Z,56.40
2024-03-02T22:50:42.634Z,50.70
2024-03-02T22:55:42.617Z,50.20
2024-03-02T23:00:42.562Z,46.90
2024-03-02T23:05:42.460Z,47.20
2024-03-02T23:10:42.382Z,44.80
2024-03-02T23:15:42.433Z,48.50
2024-03-02T23:20:42.245Z,47.10
2024-03-02T23:25:42.172Z,41.90
2024-03-02T23:30:42.190Z,47.40
2024-03-02T23:35:42.061Z,43.00
2024-03-02T23:40:41.978Z,43.10
2024-03-02T23:45:41.956Z,39.80
2024-03-02T23:50:41.877Z,37.90
2024-03-02T23:55:47.788Z,36.90
